sensor_id;sensor_type;location;lat;lon;timestamp;P1;durP1;ratioP1;P2;durP2;ratioP2
46881;SDS011;44112;38.408;-122.974;2022-08-11T00:01:17;6.60;;;2.95;;
46881;SDS011;44112;38.408;-122.974;2022-08-11T00:03:47;7.82;;;3.05;;
46881;SDS011;44112;38.408;-122.974;2022-08-11T00:06:23;6.72;;;3.15;;
46881;SDS011;44112;38.408;-122.974;2022-08-11T00:08:59;7.13;;;3.00;;
46881;SDS011;44112;38.408;-122.974;2022-08-11T00:11:36;6.18;;;3.15;;
46881;SDS011;44112;38.408;-122.974;2022-08-11T00:14:21;6.28;;;2.83;;
46881;SDS011;44112;38.408;-122.974;2022-08-11T00:19:23;6.90;;;2.78;;
46881;SDS011;44112;38.408;-122.974;2022-08-11T00:22:02;6.35;;;2.92;;
46881;SDS011;44112;38.408;-122.974;2022-08-11T00:24:34;6.40;;;3.05;;
46881;SDS011;44112;38.408;-122.974;2022-08-11T00:27:02;5.45;;;2.60;;
46881;SDS011;44112;38.408;-122.974;2022-08-11T00:29:30;6.63;;;3.08;;
46881;SDS011;44112;38.408;-122.974;2022-08-11T00:31:59;6.38;;;2.90;;
46881;SDS011;44112;38.408;-122.974;2022-08-11T00:34:32;5.38;;;2.63;;
46881;SDS011;44112;38.408;-122.974;2022-08-11T00:37:04;6.53;;;3.10;;
46881;SDS011;44112;38.408;-122.974;2022-08-11T00:39:41;5.43;;;2.63;;
46881;SDS011;44112;38.408;-122.974;2022-08-11T00:42:18;7.57;;;2.90;;
46881;SDS011;44112;38.408;-122.974;2022-08-11T00:48:24;6.50;;;2.67;;
46881;SDS011;44112;38.408;-122.974;2022-08-11T01:10:06;8.70;;;2.90;;
46881;SDS011;44112;38.408;-122.974;2022-08-11T01:18:44;5.15;;;2.72;;
46881;SDS011;44112;38.408;-122.974;2022-08-11T01:41:32;9.10;;;3.05;;
46881;SDS011;44112;38.408;-122.974;2022-08-11T01:44:42;6.47;;;2.90;;
46881;SDS011;44112;38.408;-122.974;2022-08-11T01:47:37;7.05;;;2.88;;
46881;SDS011;44112;38.408;-122.974;2022-08-11T02:04:53;20.90;;;4.25;;
46881;SDS011;44112;38.408;-122.974;2022-08-11T02:07:37;14.27;;;3.67;;
46881;SDS011;44112;38.408;-122.974;2022-08-11T02:21:59;7.97;;;3.15;;
46881;SDS011;44112;38.408;-122.974;2022-08-11T02:25:17;30.33;;;5.78;;
46881;SDS011;44112;38.408;-122.974;2022-08-11T02:28:04;20.45;;;4.45;;
46881;SDS011;44112;38.408;-122.974;2022-08-11T02:30:37;12.98;;;3.65;;
46881;SDS011;44112;38.408;-122.974;2022-08-11T02:33:31;29.77;;;4.75;;
46881;SDS011;44112;38.408;-122.974;2022-08-11T02:48:00;12.48;;;4.00;;
46881;SDS011;44112;38.408;-122.974;2022-08-11T02:51:18;17.30;;;3.75;;
46881;SDS011;44112;38.408;-122.974;2022-08-11T03:09:59;8.45;;;3.35;;
46881;SDS011;44112;38.408;-122.974;2022-08-11T03:12:46;15.27;;;3.13;;
46881;SDS011;44112;38.408;-122.974;2022-08-11T03:15:47;8.68;;;3.28;;
46881;SDS011;44112;38.408;-122.974;2022-08-11T03:21:31;12.43;;;3.17;;
46881;SDS011;44112;38.408;-122.974;2022-08-11T03:24:14;9.88;;;3.67;;
46881;SDS011;44112;38.408;-122.974;2022-08-11T03:32:06;8.85;;;3.35;;
46881;SDS011;44112;38.408;-122.974;2022-08-11T03:34:35;6.97;;;3.42;;
46881;SDS011;44112;38.408;-122.974;2022-08-11T03:43:18;6.55;;;2.83;;
46881;SDS011;44112;38.408;-122.974;2022-08-11T03:46:07;11.18;;;3.30;;
46881;SDS011;44112;38.408;-122.974;2022-08-11T03:54:16;7.95;;;3.15;;
46881;SDS011;44112;38.408;-122.974;2022-08-11T03:59:43;9.55;;;2.97;;
46881;SDS011;44112;38.408;-122.974;2022-08-11T04:08:19;10.52;;;3.55;;
46881;SDS011;44112;38.408;-122.974;2022-08-11T04:16:53;10.18;;;3.63;;
46881;SDS011;44112;38.408;-122.974;2022-08-11T04:42:39;9.88;;;3.13;;
46881;SDS011;44112;38.408;-122.974;2022-08-11T04:57:58;6.97;;;3.00;;
46881;SDS011;44112;38.408;-122.974;2022-08-11T05:01:23;7.68;;;3.00;;
46881;SDS011;44112;38.408;-122.974;2022-08-11T05:13:05;12.10;;;3.10;;
46881;SDS011;44112;38.408;-122.974;2022-08-11T05:15:55;6.57;;;3.08;;
46881;SDS011;44112;38.408;-122.974;2022-08-11T05:18:49;7.25;;;2.83;;
46881;SDS011;44112;38.408;-122.974;2022-08-11T05:21:36;9.18;;;3.75;;
46881;SDS011;44112;38.408;-122.974;2022-08-11T05:25:00;8.02;;;3.10;;
46881;SDS011;44112;38.408;-122.974;2022-08-11T05:30:59;9.77;;;2.80;;
46881;SDS011;44112;38.408;-122.974;2022-08-11T05:33:51;7.50;;;3.20;;
46881;SDS011;44112;38.408;-122.974;2022-08-11T05:36:49;7.07;;;2.95;;
46881;SDS011;44112;38.408;-122.974;2022-08-11T05:39:27;8.43;;;2.97;;
46881;SDS011;44112;38.408;-122.974;2022-08-11T05:42:15;7.50;;;3.13;;
46881;SDS011;44112;38.408;-122.974;2022-08-11T05:45:03;6.72;;;2.95;;
46881;SDS011;44112;38.408;-122.974;2022-08-11T05:47:55;7.10;;;2.90;;
46881;SDS011;44112;38.408;-122.974;2022-08-11T05:50:42;7.95;;;3.10;;
46881;SDS011;44112;38.408;-122.974;2022-08-11T05:53:43;6.45;;;2.92;;
46881;SDS011;44112;38.408;-122.974;2022-08-11T05:56:46;6.57;;;2.70;;
46881;SDS011;44112;38.408;-122.974;2022-08-11T05:59:18;7.28;;;2.92;;
46881;SDS011;44112;38.408;-122.974;2022-08-11T06:01:47;6.43;;;2.72;;
46881;SDS011;44112;38.408;-122.974;2022-08-11T06:04:16;6.03;;;2.63;;
46881;SDS011;44112;38.408;-122.974;2022-08-11T06:07:25;5.45;;;2.78;;
46881;SDS011;44112;38.408;-122.974;2022-08-11T06:09:48;5.82;;;3.03;;
46881;SDS011;44112;38.408;-122.974;2022-08-11T06:12:22;5.22;;;2.70;;
46881;SDS011;44112;38.408;-122.974;2022-08-11T06:14:54;6.95;;;3.00;;
46881;SDS011;44112;38.408;-122.974;2022-08-11T06:17:26;6.10;;;2.90;;
46881;SDS011;44112;38.408;-122.974;2022-08-11T06:20:06;7.60;;;2.85;;
46881;SDS011;44112;38.408;-122.974;2022-08-11T06:22:37;8.40;;;3.35;;
46881;SDS011;44112;38.408;-122.974;2022-08-11T06:25:07;5.65;;;2.55;;
46881;SDS011;44112;38.408;-122.974;2022-08-11T06:27:35;6.50;;;2.90;;
46881;SDS011;44112;38.408;-122.974;2022-08-11T06:30:03;5.22;;;2.53;;
46881;SDS011;44112;38.408;-122.974;2022-08-11T06:32:38;6.47;;;2.70;;
46881;SDS011;44112;38.408;-122.974;2022-08-11T06:38:01;7.40;;;3.00;;
46881;SDS011;44112;38.408;-122.974;2022-08-11T06:40:42;7.45;;;2.95;;
46881;SDS011;44112;38.408;-122.974;2022-08-11T06:43:42;5.60;;;2.50;;
46881;SDS011;44112;38.408;-122.974;2022-08-11T06:46:22;6.72;;;2.78;;
46881;SDS011;44112;38.408;-122.974;2022-08-11T06:48:55;5.25;;;2.72;;
46881;SDS011;44112;38.408;-122.974;2022-08-11T06:51:22;6.95;;;2.70;;
46881;SDS011;44112;38.408;-122.974;2022-08-11T06:53:50;5.07;;;2.50;;
46881;SDS011;44112;38.408;-122.974;2022-08-11T06:56:24;6.50;;;2.83;;
46881;SDS011;44112;38.408;-122.974;2022-08-11T06:59:16;5.35;;;2.50;;
46881;SDS011;44112;38.408;-122.974;2022-08-11T07:02:11;5.85;;;2.60;;
46881;SDS011;44112;38.408;-122.974;2022-08-11T07:05:04;5.13;;;2.50;;
46881;SDS011;44112;38.408;-122.974;2022-08-11T07:14:00;5.78;;;2.55;;
46881;SDS011;44112;38.408;-122.974;2022-08-11T07:16:47;5.43;;;2.85;;
46881;SDS011;44112;38.408;-122.974;2022-08-11T07:19:16;6.78;;;2.88;;
46881;SDS011;44112;38.408;-122.974;2022-08-11T07:22:07;5.25;;;2.72;;
46881;SDS011;44112;38.408;-122.974;2022-08-11T07:24:57;6.65;;;2.60;;
46881;SDS011;44112;38.408;-122.974;2022-08-11T07:27:55;7.70;;;3.00;;
46881;SDS011;44112;38.408;-122.974;2022-08-11T07:30:50;14.82;;;3.33;;
46881;SDS011;44112;38.408;-122.974;2022-08-11T07:33:26;8.60;;;3.20;;
46881;SDS011;44112;38.408;-122.974;2022-08-11T07:36:15;9.13;;;2.97;;
46881;SDS011;44112;38.408;-122.974;2022-08-11T07:38:44;6.75;;;2.83;;
46881;SDS011;44112;38.408;-122.974;2022-08-11T07:41:19;8.65;;;3.20;;
46881;SDS011;44112;38.408;-122.974;2022-08-11T07:43:49;6.38;;;2.95;;
46881;SDS011;44112;38.408;-122.974;2022-08-11T07:46:18;6.70;;;2.72;;
46881;SDS011;44112;38.408;-122.974;2022-08-11T07:49:05;5.82;;;2.70;;
46881;SDS011;44112;38.408;-122.974;2022-08-11T07:51:52;5.85;;;2.80;;
46881;SDS011;44112;38.408;-122.974;2022-08-11T07:54:37;6.82;;;2.80;;
46881;SDS011;44112;38.408;-122.974;2022-08-11T07:57:07;5.93;;;2.42;;
46881;SDS011;44112;38.408;-122.974;2022-08-11T07:59:53;5.93;;;2.45;;
46881;SDS011;44112;38.408;-122.974;2022-08-11T08:02:41;6.20;;;2.85;;
46881;SDS011;44112;38.408;-122.974;2022-08-11T08:05:27;7.03;;;2.70;;
46881;SDS011;44112;38.408;-122.974;2022-08-11T08:08:13;6.63;;;2.63;;
46881;SDS011;44112;38.408;-122.974;2022-08-11T08:10:59;6.93;;;2.67;;
46881;SDS011;44112;38.408;-122.974;2022-08-11T08:13:44;5.38;;;2.60;;
46881;SDS011;44112;38.408;-122.974;2022-08-11T08:16:29;6.63;;;2.70;;
46881;SDS011;44112;38.408;-122.974;2022-08-11T08:19:16;6.75;;;2.60;;
46881;SDS011;44112;38.408;-122.974;2022-08-11T08:21:45;6.57;;;2.80;;
46881;SDS011;44112;38.408;-122.974;2022-08-11T08:24:13;4.88;;;2.42;;
46881;SDS011;44112;38.408;-122.974;2022-08-11T08:26:41;6.25;;;2.60;;
46881;SDS011;44112;38.408;-122.974;2022-08-11T08:29:23;4.43;;;2.35;;
46881;SDS011;44112;38.408;-122.974;2022-08-11T08:32:12;4.60;;;2.58;;
46881;SDS011;44112;38.408;-122.974;2022-08-11T08:34:40;8.45;;;2.70;;
46881;SDS011;44112;38.408;-122.974;2022-08-11T08:37:07;6.38;;;2.72;;
46881;SDS011;44112;38.408;-122.974;2022-08-11T08:39:34;6.95;;;2.95;;
46881;SDS011;44112;38.408;-122.974;2022-08-11T08:42:08;7.15;;;2.90;;
46881;SDS011;44112;38.408;-122.974;2022-08-11T08:44:44;7.35;;;2.88;;
46881;SDS011;44112;38.408;-122.974;2022-08-11T08:47:15;6.40;;;2.90;;
46881;SDS011;44112;38.408;-122.974;2022-08-11T08:49:44;8.18;;;3.08;;
46881;SDS011;44112;38.408;-122.974;2022-08-11T08:52:17;7.18;;;2.80;;
46881;SDS011;44112;38.408;-122.974;2022-08-11T08:54:48;7.43;;;2.88;;
46881;SDS011;44112;38.408;-122.974;2022-08-11T08:57:23;9.10;;;3.10;;
46881;SDS011;44112;38.408;-122.974;2022-08-11T08:59:53;6.70;;;2.72;;
46881;SDS011;44112;38.408;-122.974;2022-08-11T09:02:23;7.93;;;3.17;;
46881;SDS011;44112;38.408;-122.974;2022-08-11T09:04:51;6.88;;;3.15;;
46881;SDS011;44112;38.408;-122.974;2022-08-11T09:07:19;6.28;;;2.63;;
46881;SDS011;44112;38.408;-122.974;2022-08-11T09:09:49;6.68;;;2.83;;
46881;SDS011;44112;38.408;-122.974;2022-08-11T09:12:19;6.20;;;2.88;;
46881;SDS011;44112;38.408;-122.974;2022-08-11T09:14:47;8.68;;;3.20;;
46881;SDS011;44112;38.408;-122.974;2022-08-11T09:20:05;7.78;;;3.10;;
46881;SDS011;44112;38.408;-122.974;2022-08-11T09:22:39;6.43;;;2.83;;
46881;SDS011;44112;38.408;-122.974;2022-08-11T09:25:26;7.15;;;2.78;;
46881;SDS011;44112;38.408;-122.974;2022-08-11T09:28:15;6.50;;;2.75;;
46881;SDS011;44112;38.408;-122.974;2022-08-11T09:30:43;6.20;;;2.72;;
46881;SDS011;44112;38.408;-122.974;2022-08-11T09:33:18;5.55;;;2.70;;
46881;SDS011;44112;38.408;-122.974;2022-08-11T09:35:46;5.43;;;2.60;;
46881;SDS011;44112;38.408;-122.974;2022-08-11T09:38:16;6.22;;;2.88;;
46881;SDS011;44112;38.408;-122.974;2022-08-11T09:41:03;7.25;;;2.67;;
46881;SDS011;44112;38.408;-122.974;2022-08-11T09:43:33;7.45;;;2.85;;
46881;SDS011;44112;38.408;-122.974;2022-08-11T09:46:23;6.70;;;2.88;;
46881;SDS011;44112;38.408;-122.974;2022-08-11T09:48:55;8.43;;;2.92;;
46881;SDS011;44112;38.408;-122.974;2022-08-11T09:51:25;7.75;;;3.08;;
46881;SDS011;44112;38.408;-122.974;2022-08-11T09:53:56;7.57;;;2.75;;
46881;SDS011;44112;38.408;-122.974;2022-08-11T09:56:30;5.40;;;2.88;;
46881;SDS011;44112;38.408;-122.974;2022-08-11T09:59:17;5.70;;;2.85;;
46881;SDS011;44112;38.408;-122.974;2022-08-11T10:01:50;6.35;;;3.08;;
46881;SDS011;44112;38.408;-122.974;2022-08-11T10:04:23;4.65;;;2.28;;
46881;SDS011;44112;38.408;-122.974;2022-08-11T10:06:57;5.80;;;2.60;;
46881;SDS011;44112;38.408;-122.974;2022-08-11T10:09:37;6.30;;;3.05;;
46881;SDS011;44112;38.408;-122.974;2022-08-11T10:12:11;5.10;;;2.50;;
46881;SDS011;44112;38.408;-122.974;2022-08-11T10:15:00;7.30;;;2.97;;
46881;SDS011;44112;38.408;-122.974;2022-08-11T10:17:52;6.75;;;2.92;;
46881;SDS011;44112;38.408;-122.974;2022-08-11T10:20:44;6.53;;;3.00;;
46881;SDS011;44112;38.408;-122.974;2022-08-11T10:23:14;6.28;;;2.67;;
46881;SDS011;44112;38.408;-122.974;2022-08-11T10:25:59;6.10;;;2.70;;
46881;SDS011;44112;38.408;-122.974;2022-08-11T10:28:46;6.07;;;2.95;;
46881;SDS011;44112;38.408;-122.974;2022-08-11T10:31:12;5.07;;;2.80;;
46881;SDS011;44112;38.408;-122.974;2022-08-11T10:33:58;5.53;;;2.60;;
46881;SDS011;44112;38.408;-122.974;2022-08-11T10:36:32;4.95;;;2.45;;
46881;SDS011;44112;38.408;-122.974;2022-08-11T10:39:07;5.60;;;2.42;;
46881;SDS011;44112;38.408;-122.974;2022-08-11T10:41:36;4.82;;;2.65;;
46881;SDS011;44112;38.408;-122.974;2022-08-11T10:44:22;6.90;;;2.60;;
46881;SDS011;44112;38.408;-122.974;2022-08-11T10:46:50;6.63;;;2.80;;
46881;SDS011;44112;38.408;-122.974;2022-08-11T10:49:36;5.28;;;2.58;;
46881;SDS011;44112;38.408;-122.974;2022-08-11T10:52:02;4.90;;;2.60;;
46881;SDS011;44112;38.408;-122.974;2022-08-11T10:54:47;5.32;;;2.47;;
46881;SDS011;44112;38.408;-122.974;2022-08-11T10:57:33;5.03;;;2.40;;
46881;SDS011;44112;38.408;-122.974;2022-08-11T11:00:18;4.93;;;2.60;;
46881;SDS011;44112;38.408;-122.974;2022-08-11T11:02:45;6.43;;;2.70;;
46881;SDS011;44112;38.408;-122.974;2022-08-11T11:05:18;5.28;;;2.63;;
46881;SDS011;44112;38.408;-122.974;2022-08-11T11:07:59;5.80;;;2.70;;
46881;SDS011;44112;38.408;-122.974;2022-08-11T11:10:54;4.63;;;2.40;;
46881;SDS011;44112;38.408;-122.974;2022-08-11T11:13:22;4.88;;;2.72;;
46881;SDS011;44112;38.408;-122.974;2022-08-11T11:16:09;5.82;;;2.80;;
46881;SDS011;44112;38.408;-122.974;2022-08-11T11:18:55;5.93;;;2.42;;
46881;SDS011;44112;38.408;-122.974;2022-08-11T11:21:24;4.57;;;2.40;;
46881;SDS011;44112;38.408;-122.974;2022-08-11T11:23:59;4.63;;;2.50;;
46881;SDS011;44112;38.408;-122.974;2022-08-11T11:27:03;4.70;;;2.70;;
46881;SDS011;44112;38.408;-122.974;2022-08-11T11:32:26;7.10;;;2.95;;
46881;SDS011;44112;38.408;-122.974;2022-08-11T11:37:44;4.25;;;2.30;;
46881;SDS011;44112;38.408;-122.974;2022-08-11T11:40:15;5.32;;;2.50;;
46881;SDS011;44112;38.408;-122.974;2022-08-11T11:42:47;4.75;;;2.40;;
46881;SDS011;44112;38.408;-122.974;2022-08-11T11:45:22;4.72;;;2.38;;
46881;SDS011;44112;38.408;-122.974;2022-08-11T11:47:55;4.50;;;2.38;;
46881;SDS011;44112;38.408;-122.974;2022-08-11T11:50:24;4.57;;;2.33;;
46881;SDS011;44112;38.408;-122.974;2022-08-11T11:53:07;5.22;;;2.55;;
46881;SDS011;44112;38.408;-122.974;2022-08-11T11:55:35;5.13;;;2.40;;
46881;SDS011;44112;38.408;-122.974;2022-08-11T11:58:02;5.05;;;2.53;;
46881;SDS011;44112;38.408;-122.974;2022-08-11T12:00:48;4.85;;;2.55;;
46881;SDS011;44112;38.408;-122.974;2022-08-11T12:03:35;5.07;;;2.60;;
46881;SDS011;44112;38.408;-122.974;2022-08-11T12:06:02;5.35;;;2.40;;
46881;SDS011;44112;38.408;-122.974;2022-08-11T12:08:31;5.05;;;2.50;;
46881;SDS011;44112;38.408;-122.974;2022-08-11T12:11:01;5.55;;;2.70;;
46881;SDS011;44112;38.408;-122.974;2022-08-11T12:13:49;6.28;;;2.70;;
46881;SDS011;44112;38.408;-122.974;2022-08-11T12:16:19;5.30;;;2.50;;
46881;SDS011;44112;38.408;-122.974;2022-08-11T12:18:52;4.63;;;2.40;;
46881;SDS011;44112;38.408;-122.974;2022-08-11T12:21:20;5.25;;;2.55;;
46881;SDS011;44112;38.408;-122.974;2022-08-11T12:23:49;4.82;;;2.50;;
46881;SDS011;44112;38.408;-122.974;2022-08-11T12:26:34;4.40;;;2.42;;
46881;SDS011;44112;38.408;-122.974;2022-08-11T12:29:21;5.15;;;2.60;;
46881;SDS011;44112;38.408;-122.974;2022-08-11T12:31:52;4.60;;;2.55;;
46881;SDS011;44112;38.408;-122.974;2022-08-11T12:34:19;4.90;;;2.40;;
46881;SDS011;44112;38.408;-122.974;2022-08-11T12:36:59;4.70;;;2.45;;
46881;SDS011;44112;38.408;-122.974;2022-08-11T12:39:33;4.45;;;2.50;;
46881;SDS011;44112;38.408;-122.974;2022-08-11T12:42:20;5.13;;;2.50;;
46881;SDS011;44112;38.408;-122.974;2022-08-11T12:45:07;5.30;;;2.35;;
46881;SDS011;44112;38.408;-122.974;2022-08-11T12:47:52;5.07;;;2.40;;
46881;SDS011;44112;38.408;-122.974;2022-08-11T12:53:40;4.97;;;2.30;;
46881;SDS011;44112;38.408;-122.974;2022-08-11T12:56:12;5.13;;;2.50;;
46881;SDS011;44112;38.408;-122.974;2022-08-11T12:58:57;5.00;;;2.50;;
46881;SDS011;44112;38.408;-122.974;2022-08-11T13:01:45;5.20;;;2.53;;
46881;SDS011;44112;38.408;-122.974;2022-08-11T13:04:30;4.70;;;2.40;;
46881;SDS011;44112;38.408;-122.974;2022-08-11T13:07:17;4.47;;;2.50;;
46881;SDS011;44112;38.408;-122.974;2022-08-11T13:09:45;4.35;;;2.28;;
46881;SDS011;44112;38.408;-122.974;2022-08-11T13:12:13;4.82;;;2.53;;
46881;SDS011;44112;38.408;-122.974;2022-08-11T13:14:59;4.65;;;2.42;;
46881;SDS011;44112;38.408;-122.974;2022-08-11T13:17:29;5.45;;;2.60;;
46881;SDS011;44112;38.408;-122.974;2022-08-11T13:19:58;5.75;;;2.40;;
46881;SDS011;44112;38.408;-122.974;2022-08-11T13:22:27;7.57;;;3.10;;
46881;SDS011;44112;38.408;-122.974;2022-08-11T13:24:54;5.70;;;2.50;;
46881;SDS011;44112;38.408;-122.974;2022-08-11T13:27:23;4.78;;;2.38;;
46881;SDS011;44112;38.408;-122.974;2022-08-11T13:29:51;5.43;;;2.45;;
46881;SDS011;44112;38.408;-122.974;2022-08-11T13:32:39;4.65;;;2.40;;
46881;SDS011;44112;38.408;-122.974;2022-08-11T13:35:09;5.18;;;2.50;;
46881;SDS011;44112;38.408;-122.974;2022-08-11T13:37:43;4.90;;;2.40;;
46881;SDS011;44112;38.408;-122.974;2022-08-11T13:40:10;4.82;;;2.40;;
46881;SDS011;44112;38.408;-122.974;2022-08-11T13:42:39;4.95;;;2.53;;
46881;SDS011;44112;38.408;-122.974;2022-08-11T13:45:06;5.10;;;2.88;;
46881;SDS011;44112;38.408;-122.974;2022-08-11T13:47:35;4.40;;;2.30;;
46881;SDS011;44112;38.408;-122.974;2022-08-11T13:50:04;4.57;;;2.40;;
46881;SDS011;44112;38.408;-122.974;2022-08-11T13:52:33;4.50;;;2.50;;
46881;SDS011;44112;38.408;-122.974;2022-08-11T13:55:04;5.30;;;2.50;;
46881;SDS011;44112;38.408;-122.974;2022-08-11T13:57:32;5.15;;;2.70;;
46881;SDS011;44112;38.408;-122.974;2022-08-11T14:00:00;4.80;;;2.47;;
46881;SDS011;44112;38.408;-122.974;2022-08-11T14:02:37;3.78;;;2.13;;
46881;SDS011;44112;38.408;-122.974;2022-08-11T14:05:09;4.40;;;2.50;;
46881;SDS011;44112;38.408;-122.974;2022-08-11T14:10:24;4.85;;;2.58;;
46881;SDS011;44112;38.408;-122.974;2022-08-11T14:12:59;4.90;;;2.50;;
46881;SDS011;44112;38.408;-122.974;2022-08-11T14:15:57;5.20;;;2.28;;
46881;SDS011;44112;38.408;-122.974;2022-08-11T14:18:32;4.55;;;2.40;;
46881;SDS011;44112;38.408;-122.974;2022-08-11T14:21:00;5.10;;;2.75;;
46881;SDS011;44112;38.408;-122.974;2022-08-11T14:23:50;3.63;;;2.15;;
46881;SDS011;44112;38.408;-122.974;2022-08-11T14:29:04;4.43;;;2.55;;
46881;SDS011;44112;38.408;-122.974;2022-08-11T14:31:34;4.70;;;2.40;;
46881;SDS011;44112;38.408;-122.974;2022-08-11T14:34:04;3.92;;;2.20;;
46881;SDS011;44112;38.408;-122.974;2022-08-11T14:36:38;5.20;;;2.45;;
46881;SDS011;44112;38.408;-122.974;2022-08-11T14:39:09;5.95;;;2.60;;
46881;SDS011;44112;38.408;-122.974;2022-08-11T14:41:39;4.18;;;2.45;;
46881;SDS011;44112;38.408;-122.974;2022-08-11T14:44:27;4.38;;;2.60;;
46881;SDS011;44112;38.408;-122.974;2022-08-11T14:47:15;4.63;;;2.30;;
46881;SDS011;44112;38.408;-122.974;2022-08-11T14:49:43;5.90;;;2.60;;
46881;SDS011;44112;38.408;-122.974;2022-08-11T14:52:14;3.95;;;2.15;;
46881;SDS011;44112;38.408;-122.974;2022-08-11T14:54:48;4.78;;;2.33;;
46881;SDS011;44112;38.408;-122.974;2022-08-11T14:57:36;4.05;;;2.38;;
46881;SDS011;44112;38.408;-122.974;2022-08-11T15:00:06;4.40;;;2.22;;
46881;SDS011;44112;38.408;-122.974;2022-08-11T15:02:37;4.85;;;2.40;;
46881;SDS011;44112;38.408;-122.974;2022-08-11T15:05:23;4.07;;;2.20;;
46881;SDS011;44112;38.408;-122.974;2022-08-11T15:07:52;4.28;;;2.30;;
46881;SDS011;44112;38.408;-122.974;2022-08-11T15:10:20;4.88;;;2.55;;
46881;SDS011;44112;38.408;-122.974;2022-08-11T15:12:47;4.38;;;2.50;;
46881;SDS011;44112;38.408;-122.974;2022-08-11T15:15:16;4.72;;;2.60;;
46881;SDS011;44112;38.408;-122.974;2022-08-11T15:18:05;4.80;;;2.60;;
46881;SDS011;44112;38.408;-122.974;2022-08-11T15:20:39;4.47;;;2.38;;
46881;SDS011;44112;38.408;-122.974;2022-08-11T15:23:25;4.25;;;2.47;;
46881;SDS011;44112;38.408;-122.974;2022-08-11T15:26:12;3.80;;;2.17;;
46881;SDS011;44112;38.408;-122.974;2022-08-11T15:28:45;5.20;;;2.50;;
46881;SDS011;44112;38.408;-122.974;2022-08-11T15:31:32;4.75;;;2.50;;
46881;SDS011;44112;38.408;-122.974;2022-08-11T15:36:57;4.57;;;2.30;;
46881;SDS011;44112;38.408;-122.974;2022-08-11T15:39:47;8.52;;;2.60;;
46881;SDS011;44112;38.408;-122.974;2022-08-11T15:42:39;6.18;;;2.60;;
46881;SDS011;44112;38.408;-122.974;2022-08-11T15:45:36;4.85;;;2.60;;
46881;SDS011;44112;38.408;-122.974;2022-08-11T15:48:47;4.95;;;2.63;;
46881;SDS011;44112;38.408;-122.974;2022-08-11T15:51:20;4.78;;;2.40;;
46881;SDS011;44112;38.408;-122.974;2022-08-11T15:54:11;5.82;;;2.50;;
46881;SDS011;44112;38.408;-122.974;2022-08-11T15:56:44;4.18;;;2.30;;
46881;SDS011;44112;38.408;-122.974;2022-08-11T15:59:14;4.90;;;2.55;;
46881;SDS011;44112;38.408;-122.974;2022-08-11T16:02:02;4.60;;;2.40;;
46881;SDS011;44112;38.408;-122.974;2022-08-11T16:04:51;3.95;;;2.22;;
46881;SDS011;44112;38.408;-122.974;2022-08-11T16:07:19;4.22;;;2.25;;
46881;SDS011;44112;38.408;-122.974;2022-08-11T16:10:05;4.22;;;2.30;;
46881;SDS011;44112;38.408;-122.974;2022-08-11T16:12:53;6.22;;;2.75;;
46881;SDS011;44112;38.408;-122.974;2022-08-11T16:15:41;5.57;;;2.60;;
46881;SDS011;44112;38.408;-122.974;2022-08-11T16:18:38;4.68;;;2.63;;
46881;SDS011;44112;38.408;-122.974;2022-08-11T16:21:31;5.68;;;2.65;;
46881;SDS011;44112;38.408;-122.974;2022-08-11T16:24:00;5.43;;;2.70;;
46881;SDS011;44112;38.408;-122.974;2022-08-11T16:26:34;5.15;;;2.60;;
46881;SDS011;44112;38.408;-122.974;2022-08-11T16:29:04;6.38;;;2.50;;
46881;SDS011;44112;38.408;-122.974;2022-08-11T16:31:32;3.85;;;2.22;;
46881;SDS011;44112;38.408;-122.974;2022-08-11T16:34:01;6.32;;;2.60;;
46881;SDS011;44112;38.408;-122.974;2022-08-11T16:36:29;6.15;;;2.60;;
46881;SDS011;44112;38.408;-122.974;2022-08-11T16:39:16;5.05;;;2.40;;
46881;SDS011;44112;38.408;-122.974;2022-08-11T16:41:44;4.43;;;2.40;;
46881;SDS011;44112;38.408;-122.974;2022-08-11T16:44:31;3.88;;;2.33;;
46881;SDS011;44112;38.408;-122.974;2022-08-11T16:47:18;5.88;;;2.50;;
46881;SDS011;44112;38.408;-122.974;2022-08-11T16:49:51;5.20;;;2.58;;
46881;SDS011;44112;38.408;-122.974;2022-08-11T16:52:21;11.80;;;3.20;;
46881;SDS011;44112;38.408;-122.974;2022-08-11T16:54:49;14.88;;;4.00;;
46881;SDS011;44112;38.408;-122.974;2022-08-11T16:57:20;21.17;;;4.60;;
46881;SDS011;44112;38.408;-122.974;2022-08-11T17:00:09;15.63;;;4.40;;
46881;SDS011;44112;38.408;-122.974;2022-08-11T17:02:42;13.48;;;4.47;;
46881;SDS011;44112;38.408;-122.974;2022-08-11T17:05:30;12.07;;;4.15;;
46881;SDS011;44112;38.408;-122.974;2022-08-11T17:08:19;10.27;;;4.00;;
46881;SDS011;44112;38.408;-122.974;2022-08-11T17:11:19;12.40;;;3.90;;
46881;SDS011;44112;38.408;-122.974;2022-08-11T17:14:10;9.13;;;3.60;;
46881;SDS011;44112;38.408;-122.974;2022-08-11T17:16:41;16.42;;;3.92;;
46881;SDS011;44112;38.408;-122.974;2022-08-11T17:19:16;13.27;;;4.00;;
46881;SDS011;44112;38.408;-122.974;2022-08-11T17:21:44;14.80;;;3.83;;
46881;SDS011;44112;38.408;-122.974;2022-08-11T17:24:39;13.38;;;3.97;;
46881;SDS011;44112;38.408;-122.974;2022-08-11T17:27:08;10.23;;;3.40;;
46881;SDS011;44112;38.408;-122.974;2022-08-11T17:32:10;12.60;;;3.63;;
46881;SDS011;44112;38.408;-122.974;2022-08-11T17:35:00;9.02;;;3.70;;
46881;SDS011;44112;38.408;-122.974;2022-08-11T17:37:52;7.93;;;3.22;;
46881;SDS011;44112;38.408;-122.974;2022-08-11T17:40:21;11.07;;;3.70;;
46881;SDS011;44112;38.408;-122.974;2022-08-11T17:42:51;15.20;;;4.18;;
46881;SDS011;44112;38.408;-122.974;2022-08-11T17:45:38;13.90;;;4.25;;
46881;SDS011;44112;38.408;-122.974;2022-08-11T17:48:28;10.50;;;3.40;;
46881;SDS011;44112;38.408;-122.974;2022-08-11T17:51:08;11.32;;;3.88;;
46881;SDS011;44112;38.408;-122.974;2022-08-11T17:53:39;10.63;;;3.80;;
46881;SDS011;44112;38.408;-122.974;2022-08-11T17:56:27;12.23;;;3.97;;
46881;SDS011;44112;38.408;-122.974;2022-08-11T17:59:15;13.77;;;3.67;;
46881;SDS011;44112;38.408;-122.974;2022-08-11T18:02:02;15.20;;;4.30;;
46881;SDS011;44112;38.408;-122.974;2022-08-11T18:04:50;11.85;;;3.72;;
46881;SDS011;44112;38.408;-122.974;2022-08-11T18:07:19;12.88;;;4.45;;
46881;SDS011;44112;38.408;-122.974;2022-08-11T18:10:08;13.25;;;3.42;;
46881;SDS011;44112;38.408;-122.974;2022-08-11T18:12:54;8.20;;;3.65;;
46881;SDS011;44112;38.408;-122.974;2022-08-11T18:15:42;15.52;;;4.10;;
46881;SDS011;44112;38.408;-122.974;2022-08-11T18:18:28;12.23;;;3.55;;
46881;SDS011;44112;38.408;-122.974;2022-08-11T18:21:14;10.60;;;3.60;;
46881;SDS011;44112;38.408;-122.974;2022-08-11T18:24:09;13.60;;;4.05;;
46881;SDS011;44112;38.408;-122.974;2022-08-11T18:27:00;11.48;;;4.22;;
46881;SDS011;44112;38.408;-122.974;2022-08-11T18:29:47;10.93;;;3.70;;
46881;SDS011;44112;38.408;-122.974;2022-08-11T18:32:35;10.30;;;3.60;;
46881;SDS011;44112;38.408;-122.974;2022-08-11T18:35:21;12.38;;;3.83;;
46881;SDS011;44112;38.408;-122.974;2022-08-11T18:38:10;11.07;;;3.58;;
46881;SDS011;44112;38.408;-122.974;2022-08-11T18:40:57;9.60;;;3.35;;
46881;SDS011;44112;38.408;-122.974;2022-08-11T18:43:45;10.60;;;3.35;;
46881;SDS011;44112;38.408;-122.974;2022-08-11T18:46:33;10.25;;;3.60;;
46881;SDS011;44112;38.408;-122.974;2022-08-11T18:49:22;8.52;;;3.10;;
46881;SDS011;44112;38.408;-122.974;2022-08-11T18:52:12;8.95;;;3.42;;
46881;SDS011;44112;38.408;-122.974;2022-08-11T18:54:59;9.82;;;3.50;;